Sapiranga, Brazil
Current Conditions -  °F | °C
As of 6:00 PM on Monday 20 Oct 2014 (Local Time) from SBCO Reporting Station
Clear Clear  
Wind Chill: 68°   Ceiling: Unl
Heat Index: 68°   Visibility: 6mi
Dew Point: 55°   Wind: 10mph
Humidity: 64%   Direction: 160°SSE
Pressure: 30.12"   Gusts: NA
Location:  29.64°S, 51.01°W
Report Text: SBCO 202100Z 16009KT CAVOK 20/13 Q1020
Loading
Personal Weather Stations






























Interactive Weather Map
Tropical Storm Tracking
New forecast layout! Learn more

10-Day Weather Forecast

Advertisements
Track Severe Weather on mobile